首页
METAR-TAF:

METAR-TAF

机场 :

乔治·贝斯特贝尔法斯特城市机场

贝尔法斯特, 北爱尔兰

纬度: 54-36N, 经度: 005-53W, 海拔: 5米

当前天气观测

该预报发布于33分钟前的18:20 UTC
风速12节,风向西转西南
温度 3°C
湿度 93%
气压 1009 hPa
能见度10公里或以上
小雨

METAR: EGAC 181820Z AUTO 25012KT 9999 -RA FEW015/// SCT029/// 03/02 Q1009 RERA

时间: 18:53 (18:53 UTC)

预报

该预报发布于1小时和56分钟前的16:57 UTC
预报有效从18日的 18点(UTC)到 18日的 21点(UTC)
风速16节,风向西转西南
能见度10公里或以上
散云层高于3000英尺
几率 30% :
短暂存在
从 18日的 18点(UTC)到 18日的 21点(UTC)
能見度: 4000
多云层高于1000英尺
阵雨, 雪

TAF: EGAC 181657Z 1818/1821 25016KT 9999 SCT030 PROB30 TEMPO 1818/1821 4000 SHRASN BKN010

超过4000个机场的气象观测和天气预报(METAR&TAF报告)。

可查询的气象台以黄色和红色小点在地图上表示。

将鼠标移到小点上方,可查看气象台名称。

然后点击查看天气观测和预报。

如需切换地图:点击带黑十字的绿色按钮放大地图;点击带横线的绿色按钮缩小地图;或者点击绿色箭头查看邻近地区的地图。


METAR-TAF: